sensor_id;sensor_type;location;lat;lon;timestamp;P1;durP1;ratioP1;P2;durP2;ratioP2
20956;SDS011;10637;47.970;7.830;2023-02-01T00:02:01;14.43;;;6.40;;
20956;SDS011;10637;47.970;7.830;2023-02-01T00:07:04;14.43;;;7.03;;
20956;SDS011;10637;47.970;7.830;2023-02-01T00:12:05;12.23;;;5.90;;
20956;SDS011;10637;47.970;7.830;2023-02-01T00:17:07;13.77;;;5.97;;
20956;SDS011;10637;47.970;7.830;2023-02-01T00:22:09;13.93;;;6.20;;
20956;SDS011;10637;47.970;7.830;2023-02-01T00:27:11;12.27;;;6.17;;
20956;SDS011;10637;47.970;7.830;2023-02-01T00:32:18;13.83;;;6.17;;
20956;SDS011;10637;47.970;7.830;2023-02-01T00:37:20;14.07;;;5.27;;
20956;SDS011;10637;47.970;7.830;2023-02-01T00:42:22;10.23;;;4.90;;
20956;SDS011;10637;47.970;7.830;2023-02-01T00:47:24;12.30;;;5.10;;
20956;SDS011;10637;47.970;7.830;2023-02-01T00:52:26;15.00;;;5.70;;
20956;SDS011;10637;47.970;7.830;2023-02-01T00:57:27;11.67;;;5.17;;
20956;SDS011;10637;47.970;7.830;2023-02-01T01:02:29;16.40;;;6.10;;
20956;SDS011;10637;47.970;7.830;2023-02-01T01:07:31;12.80;;;5.50;;
20956;SDS011;10637;47.970;7.830;2023-02-01T01:12:32;11.87;;;5.27;;
20956;SDS011;10637;47.970;7.830;2023-02-01T01:17:34;15.07;;;5.20;;
20956;SDS011;10637;47.970;7.830;2023-02-01T01:22:36;13.87;;;5.50;;
20956;SDS011;10637;47.970;7.830;2023-02-01T01:27:37;13.57;;;5.70;;
20956;SDS011;10637;47.970;7.830;2023-02-01T01:32:39;12.80;;;5.67;;
20956;SDS011;10637;47.970;7.830;2023-02-01T01:37:41;12.43;;;6.10;;
20956;SDS011;10637;47.970;7.830;2023-02-01T01:42:43;11.57;;;5.47;;
20956;SDS011;10637;47.970;7.830;2023-02-01T01:47:46;12.97;;;5.57;;
20956;SDS011;10637;47.970;7.830;2023-02-01T01:52:52;13.13;;;5.47;;
20956;SDS011;10637;47.970;7.830;2023-02-01T01:57:58;12.10;;;5.00;;
20956;SDS011;10637;47.970;7.830;2023-02-01T02:03:07;16.60;;;5.30;;
20956;SDS011;10637;47.970;7.830;2023-02-01T02:08:21;13.37;;;5.50;;
20956;SDS011;10637;47.970;7.830;2023-02-01T02:18:57;15.27;;;5.30;;
20956;SDS011;10637;47.970;7.830;2023-02-01T02:29:38;13.93;;;4.93;;
20956;SDS011;10637;47.970;7.830;2023-02-01T02:35:27;11.57;;;4.63;;
20956;SDS011;10637;47.970;7.830;2023-02-01T02:45:47;12.73;;;4.93;;
20956;SDS011;10637;47.970;7.830;2023-02-01T02:51:14;10.87;;;4.53;;
20956;SDS011;10637;47.970;7.830;2023-02-01T02:56:58;12.50;;;5.07;;
20956;SDS011;10637;47.970;7.830;2023-02-01T03:02:21;10.67;;;4.03;;
20956;SDS011;10637;47.970;7.830;2023-02-01T03:08:01;10.53;;;4.50;;
20956;SDS011;10637;47.970;7.830;2023-02-01T03:13:08;11.57;;;4.50;;
20956;SDS011;10637;47.970;7.830;2023-02-01T03:18:19;11.13;;;4.27;;
20956;SDS011;10637;47.970;7.830;2023-02-01T03:23:42;12.87;;;4.70;;
20956;SDS011;10637;47.970;7.830;2023-02-01T03:28:49;15.07;;;5.33;;
20956;SDS011;10637;47.970;7.830;2023-02-01T03:33:57;13.00;;;5.50;;
20956;SDS011;10637;47.970;7.830;2023-02-01T03:39:07;13.27;;;6.10;;
20956;SDS011;10637;47.970;7.830;2023-02-01T03:44:24;16.83;;;6.60;;
20956;SDS011;10637;47.970;7.830;2023-02-01T03:49:32;14.97;;;6.23;;
20956;SDS011;10637;47.970;7.830;2023-02-01T03:54:36;13.20;;;6.10;;
20956;SDS011;10637;47.970;7.830;2023-02-01T03:59:40;14.00;;;7.07;;
20956;SDS011;10637;47.970;7.830;2023-02-01T04:04:43;16.03;;;7.07;;
20956;SDS011;10637;47.970;7.830;2023-02-01T04:09:44;15.03;;;6.30;;
20956;SDS011;10637;47.970;7.830;2023-02-01T04:14:46;16.33;;;6.93;;
20956;SDS011;10637;47.970;7.830;2023-02-01T04:19:48;15.97;;;6.50;;
20956;SDS011;10637;47.970;7.830;2023-02-01T04:24:50;17.17;;;7.30;;
20956;SDS011;10637;47.970;7.830;2023-02-01T04:29:51;15.17;;;7.30;;
20956;SDS011;10637;47.970;7.830;2023-02-01T04:34:53;17.23;;;6.87;;
20956;SDS011;10637;47.970;7.830;2023-02-01T04:39:55;15.73;;;6.80;;
20956;SDS011;10637;47.970;7.830;2023-02-01T04:44:56;14.40;;;6.73;;
20956;SDS011;10637;47.970;7.830;2023-02-01T04:49:58;13.73;;;6.60;;
20956;SDS011;10637;47.970;7.830;2023-02-01T04:55:00;14.87;;;6.70;;
20956;SDS011;10637;47.970;7.830;2023-02-01T05:00:04;13.40;;;6.00;;
20956;SDS011;10637;47.970;7.830;2023-02-01T05:05:07;12.53;;;5.80;;
20956;SDS011;10637;47.970;7.830;2023-02-01T05:10:09;11.67;;;4.57;;
20956;SDS011;10637;47.970;7.830;2023-02-01T05:15:11;11.23;;;5.20;;
20956;SDS011;10637;47.970;7.830;2023-02-01T05:20:13;14.03;;;5.07;;
20956;SDS011;10637;47.970;7.830;2023-02-01T05:25:15;14.57;;;5.73;;
20956;SDS011;10637;47.970;7.830;2023-02-01T05:30:16;16.03;;;5.03;;
20956;SDS011;10637;47.970;7.830;2023-02-01T05:35:18;14.13;;;5.53;;
20956;SDS011;10637;47.970;7.830;2023-02-01T05:40:21;12.33;;;5.70;;
20956;SDS011;10637;47.970;7.830;2023-02-01T05:45:23;11.83;;;5.30;;
20956;SDS011;10637;47.970;7.830;2023-02-01T05:50:24;13.83;;;6.23;;
20956;SDS011;10637;47.970;7.830;2023-02-01T05:55:26;12.00;;;5.37;;
20956;SDS011;10637;47.970;7.830;2023-02-01T06:00:28;17.40;;;6.83;;
20956;SDS011;10637;47.970;7.830;2023-02-01T06:05:30;14.90;;;5.93;;
20956;SDS011;10637;47.970;7.830;2023-02-01T06:10:32;14.37;;;5.77;;
20956;SDS011;10637;47.970;7.830;2023-02-01T06:15:34;17.23;;;5.70;;
20956;SDS011;10637;47.970;7.830;2023-02-01T06:20:36;11.90;;;4.60;;
20956;SDS011;10637;47.970;7.830;2023-02-01T06:25:38;13.67;;;4.97;;
20956;SDS011;10637;47.970;7.830;2023-02-01T06:30:39;13.63;;;5.00;;
20956;SDS011;10637;47.970;7.830;2023-02-01T06:35:44;10.60;;;4.30;;
20956;SDS011;10637;47.970;7.830;2023-02-01T06:40:51;11.53;;;3.93;;
20956;SDS011;10637;47.970;7.830;2023-02-01T06:45:53;9.70;;;3.87;;
20956;SDS011;10637;47.970;7.830;2023-02-01T06:51:01;10.53;;;3.77;;
20956;SDS011;10637;47.970;7.830;2023-02-01T06:56:03;10.17;;;4.03;;
20956;SDS011;10637;47.970;7.830;2023-02-01T07:01:05;10.83;;;3.60;;
20956;SDS011;10637;47.970;7.830;2023-02-01T07:06:09;7.87;;;2.93;;
20956;SDS011;10637;47.970;7.830;2023-02-01T07:11:12;9.37;;;3.20;;
20956;SDS011;10637;47.970;7.830;2023-02-01T07:16:16;8.30;;;2.57;;
20956;SDS011;10637;47.970;7.830;2023-02-01T07:21:19;8.27;;;2.77;;
20956;SDS011;10637;47.970;7.830;2023-02-01T07:26:21;9.17;;;3.10;;
20956;SDS011;10637;47.970;7.830;2023-02-01T07:31:23;9.30;;;3.23;;
20956;SDS011;10637;47.970;7.830;2023-02-01T07:36:27;9.60;;;3.60;;
20956;SDS011;10637;47.970;7.830;2023-02-01T07:41:29;10.67;;;3.80;;
20956;SDS011;10637;47.970;7.830;2023-02-01T07:46:31;10.87;;;3.50;;
20956;SDS011;10637;47.970;7.830;2023-02-01T07:51:33;9.23;;;3.47;;
20956;SDS011;10637;47.970;7.830;2023-02-01T07:56:34;10.47;;;4.43;;
20956;SDS011;10637;47.970;7.830;2023-02-01T08:01:36;11.13;;;5.03;;
20956;SDS011;10637;47.970;7.830;2023-02-01T08:06:39;10.93;;;3.77;;
20956;SDS011;10637;47.970;7.830;2023-02-01T08:11:41;12.03;;;4.87;;
20956;SDS011;10637;47.970;7.830;2023-02-01T08:16:42;10.73;;;4.50;;
20956;SDS011;10637;47.970;7.830;2023-02-01T08:21:44;10.80;;;3.43;;
20956;SDS011;10637;47.970;7.830;2023-02-01T08:26:47;10.07;;;3.63;;
20956;SDS011;10637;47.970;7.830;2023-02-01T08:31:49;9.60;;;3.20;;
20956;SDS011;10637;47.970;7.830;2023-02-01T08:36:52;8.97;;;3.10;;
20956;SDS011;10637;47.970;7.830;2023-02-01T08:41:58;9.03;;;3.07;;
20956;SDS011;10637;47.970;7.830;2023-02-01T08:47:29;9.40;;;2.83;;
20956;SDS011;10637;47.970;7.830;2023-02-01T08:52:32;7.53;;;2.97;;
20956;SDS011;10637;47.970;7.830;2023-02-01T08:57:33;8.90;;;3.10;;
20956;SDS011;10637;47.970;7.830;2023-02-01T09:02:35;10.90;;;3.40;;
20956;SDS011;10637;47.970;7.830;2023-02-01T09:07:37;9.23;;;2.73;;
20956;SDS011;10637;47.970;7.830;2023-02-01T09:12:39;7.47;;;2.67;;
20956;SDS011;10637;47.970;7.830;2023-02-01T09:17:41;6.80;;;2.63;;
20956;SDS011;10637;47.970;7.830;2023-02-01T09:22:44;12.00;;;3.23;;
20956;SDS011;10637;47.970;7.830;2023-02-01T09:27:46;12.47;;;4.47;;
20956;SDS011;10637;47.970;7.830;2023-02-01T09:32:47;10.60;;;3.70;;
20956;SDS011;10637;47.970;7.830;2023-02-01T09:37:49;11.80;;;4.53;;
20956;SDS011;10637;47.970;7.830;2023-02-01T09:43:05;10.40;;;3.80;;
20956;SDS011;10637;47.970;7.830;2023-02-01T09:48:39;10.80;;;4.07;;
20956;SDS011;10637;47.970;7.830;2023-02-01T09:53:46;12.13;;;4.00;;
20956;SDS011;10637;47.970;7.830;2023-02-01T09:58:59;10.30;;;3.77;;
20956;SDS011;10637;47.970;7.830;2023-02-01T10:04:10;13.50;;;4.43;;
20956;SDS011;10637;47.970;7.830;2023-02-01T10:09:15;12.50;;;4.23;;
20956;SDS011;10637;47.970;7.830;2023-02-01T10:26:10;13.27;;;5.07;;
20956;SDS011;10637;47.970;7.830;2023-02-01T10:31:25;13.07;;;5.30;;
20956;SDS011;10637;47.970;7.830;2023-02-01T10:36:32;12.57;;;5.20;;
20956;SDS011;10637;47.970;7.830;2023-02-01T10:41:38;15.10;;;6.13;;
20956;SDS011;10637;47.970;7.830;2023-02-01T10:46:41;17.07;;;6.30;;
20956;SDS011;10637;47.970;7.830;2023-02-01T10:51:45;17.10;;;7.70;;
20956;SDS011;10637;47.970;7.830;2023-02-01T10:56:53;16.70;;;5.30;;
20956;SDS011;10637;47.970;7.830;2023-02-01T11:01:59;12.93;;;5.37;;
20956;SDS011;10637;47.970;7.830;2023-02-01T11:17:45;22.03;;;7.43;;
20956;SDS011;10637;47.970;7.830;2023-02-01T11:22:52;16.87;;;5.57;;
20956;SDS011;10637;47.970;7.830;2023-02-01T11:27:56;24.73;;;11.10;;
20956;SDS011;10637;47.970;7.830;2023-02-01T11:32:58;20.00;;;4.70;;
20956;SDS011;10637;47.970;7.830;2023-02-01T11:38:09;20.60;;;6.90;;
20956;SDS011;10637;47.970;7.830;2023-02-01T11:43:25;14.93;;;4.87;;
20956;SDS011;10637;47.970;7.830;2023-02-01T11:48:29;17.50;;;5.30;;
20956;SDS011;10637;47.970;7.830;2023-02-01T11:53:37;23.00;;;7.60;;
20956;SDS011;10637;47.970;7.830;2023-02-01T11:59:03;33.23;;;10.20;;
20956;SDS011;10637;47.970;7.830;2023-02-01T12:26:04;21.70;;;5.60;;
20956;SDS011;10637;47.970;7.830;2023-02-01T12:31:40;29.00;;;8.43;;
20956;SDS011;10637;47.970;7.830;2023-02-01T12:42:16;22.23;;;6.20;;
20956;SDS011;10637;47.970;7.830;2023-02-01T12:52:52;25.63;;;6.13;;
20956;SDS011;10637;47.970;7.830;2023-02-01T12:57:58;18.63;;;5.77;;
20956;SDS011;10637;47.970;7.830;2023-02-01T13:08:43;22.53;;;5.67;;
20956;SDS011;10637;47.970;7.830;2023-02-01T13:19:10;21.97;;;5.53;;
20956;SDS011;10637;47.970;7.830;2023-02-01T13:24:54;21.43;;;5.30;;
20956;SDS011;10637;47.970;7.830;2023-02-01T13:29:58;25.17;;;6.40;;
20956;SDS011;10637;47.970;7.830;2023-02-01T13:35:19;21.40;;;5.23;;
20956;SDS011;10637;47.970;7.830;2023-02-01T13:40:37;19.23;;;5.20;;
20956;SDS011;10637;47.970;7.830;2023-02-01T13:45:44;20.27;;;5.30;;
20956;SDS011;10637;47.970;7.830;2023-02-01T13:50:53;18.77;;;5.03;;
20956;SDS011;10637;47.970;7.830;2023-02-01T14:11:31;13.37;;;4.07;;
20956;SDS011;10637;47.970;7.830;2023-02-01T14:27:28;17.87;;;4.03;;
20956;SDS011;10637;47.970;7.830;2023-02-01T14:32:38;19.37;;;4.43;;
20956;SDS011;10637;47.970;7.830;2023-02-01T14:37:43;18.83;;;5.30;;
20956;SDS011;10637;47.970;7.830;2023-02-01T14:42:46;19.30;;;4.60;;
20956;SDS011;10637;47.970;7.830;2023-02-01T14:59:01;21.27;;;4.73;;
20956;SDS011;10637;47.970;7.830;2023-02-01T15:09:19;22.80;;;5.63;;
20956;SDS011;10637;47.970;7.830;2023-02-01T15:14:26;16.17;;;4.87;;
20956;SDS011;10637;47.970;7.830;2023-02-01T15:19:29;19.77;;;4.73;;
20956;SDS011;10637;47.970;7.830;2023-02-01T15:24:31;24.13;;;5.50;;
20956;SDS011;10637;47.970;7.830;2023-02-01T15:29:33;26.03;;;6.37;;
20956;SDS011;10637;47.970;7.830;2023-02-01T15:34:46;22.00;;;5.53;;
20956;SDS011;10637;47.970;7.830;2023-02-01T15:45:16;19.87;;;5.03;;
20956;SDS011;10637;47.970;7.830;2023-02-01T15:50:22;24.27;;;6.33;;
20956;SDS011;10637;47.970;7.830;2023-02-01T16:00:44;23.63;;;5.17;;
20956;SDS011;10637;47.970;7.830;2023-02-01T16:05:59;20.30;;;5.60;;
20956;SDS011;10637;47.970;7.830;2023-02-01T16:16:11;22.50;;;5.33;;
20956;SDS011;10637;47.970;7.830;2023-02-01T16:21:15;20.50;;;4.67;;
20956;SDS011;10637;47.970;7.830;2023-02-01T16:26:17;16.17;;;4.47;;
20956;SDS011;10637;47.970;7.830;2023-02-01T16:31:21;16.57;;;4.73;;
20956;SDS011;10637;47.970;7.830;2023-02-01T16:36:29;17.93;;;4.93;;
20956;SDS011;10637;47.970;7.830;2023-02-01T16:41:31;21.33;;;5.00;;
20956;SDS011;10637;47.970;7.830;2023-02-01T16:46:35;17.53;;;5.53;;
20956;SDS011;10637;47.970;7.830;2023-02-01T16:51:44;24.07;;;5.53;;
20956;SDS011;10637;47.970;7.830;2023-02-01T16:56:47;21.73;;;5.47;;
20956;SDS011;10637;47.970;7.830;2023-02-01T17:01:49;21.53;;;5.40;;
20956;SDS011;10637;47.970;7.830;2023-02-01T17:06:51;21.23;;;4.97;;
20956;SDS011;10637;47.970;7.830;2023-02-01T17:11:52;13.80;;;5.00;;
20956;SDS011;10637;47.970;7.830;2023-02-01T17:16:54;12.87;;;3.90;;
20956;SDS011;10637;47.970;7.830;2023-02-01T17:21:58;19.97;;;4.80;;
20956;SDS011;10637;47.970;7.830;2023-02-01T17:27:00;25.13;;;6.57;;
20956;SDS011;10637;47.970;7.830;2023-02-01T17:32:02;17.10;;;5.10;;
20956;SDS011;10637;47.970;7.830;2023-02-01T17:37:22;21.23;;;5.50;;
20956;SDS011;10637;47.970;7.830;2023-02-01T17:42:26;22.17;;;5.20;;
20956;SDS011;10637;47.970;7.830;2023-02-01T17:47:29;17.33;;;5.33;;
20956;SDS011;10637;47.970;7.830;2023-02-01T17:52:32;23.33;;;5.80;;
20956;SDS011;10637;47.970;7.830;2023-02-01T17:57:36;19.30;;;5.57;;
20956;SDS011;10637;47.970;7.830;2023-02-01T18:02:38;18.00;;;5.50;;
20956;SDS011;10637;47.970;7.830;2023-02-01T18:07:40;19.17;;;5.90;;
20956;SDS011;10637;47.970;7.830;2023-02-01T18:12:42;16.17;;;4.63;;
20956;SDS011;10637;47.970;7.830;2023-02-01T18:17:44;23.37;;;5.40;;
20956;SDS011;10637;47.970;7.830;2023-02-01T18:22:47;17.23;;;5.00;;
20956;SDS011;10637;47.970;7.830;2023-02-01T18:27:49;19.87;;;5.07;;
20956;SDS011;10637;47.970;7.830;2023-02-01T18:32:53;16.07;;;4.17;;
20956;SDS011;10637;47.970;7.830;2023-02-01T18:37:55;22.67;;;5.43;;
20956;SDS011;10637;47.970;7.830;2023-02-01T18:42:58;19.93;;;6.77;;
20956;SDS011;10637;47.970;7.830;2023-02-01T18:48:00;20.00;;;5.13;;
20956;SDS011;10637;47.970;7.830;2023-02-01T18:53:04;18.53;;;5.30;;
20956;SDS011;10637;47.970;7.830;2023-02-01T18:58:09;21.67;;;5.30;;
20956;SDS011;10637;47.970;7.830;2023-02-01T19:03:14;19.27;;;5.10;;
20956;SDS011;10637;47.970;7.830;2023-02-01T19:08:16;17.70;;;5.90;;
20956;SDS011;10637;47.970;7.830;2023-02-01T19:13:17;16.90;;;4.80;;
20956;SDS011;10637;47.970;7.830;2023-02-01T19:18:23;17.23;;;5.70;;
20956;SDS011;10637;47.970;7.830;2023-02-01T19:23:25;21.30;;;4.70;;
20956;SDS011;10637;47.970;7.830;2023-02-01T19:28:26;18.60;;;5.07;;
20956;SDS011;10637;47.970;7.830;2023-02-01T19:33:28;23.47;;;5.70;;
20956;SDS011;10637;47.970;7.830;2023-02-01T19:38:30;18.63;;;5.00;;
20956;SDS011;10637;47.970;7.830;2023-02-01T19:43:33;18.83;;;5.20;;
20956;SDS011;10637;47.970;7.830;2023-02-01T19:48:36;26.53;;;5.90;;
20956;SDS011;10637;47.970;7.830;2023-02-01T19:53:38;19.93;;;5.40;;
20956;SDS011;10637;47.970;7.830;2023-02-01T19:58:40;29.40;;;6.20;;
20956;SDS011;10637;47.970;7.830;2023-02-01T20:03:43;22.50;;;4.87;;
20956;SDS011;10637;47.970;7.830;2023-02-01T20:08:47;23.23;;;5.63;;
20956;SDS011;10637;47.970;7.830;2023-02-01T20:13:49;20.23;;;7.13;;
20956;SDS011;10637;47.970;7.830;2023-02-01T20:18:50;30.23;;;8.73;;
20956;SDS011;10637;47.970;7.830;2023-02-01T20:23:52;23.13;;;6.40;;
20956;SDS011;10637;47.970;7.830;2023-02-01T20:28:54;22.30;;;5.03;;
20956;SDS011;10637;47.970;7.830;2023-02-01T20:33:56;19.07;;;4.30;;
20956;SDS011;10637;47.970;7.830;2023-02-01T20:38:59;23.03;;;5.27;;
20956;SDS011;10637;47.970;7.830;2023-02-01T20:44:01;16.73;;;4.17;;
20956;SDS011;10637;47.970;7.830;2023-02-01T20:49:02;20.20;;;4.67;;
20956;SDS011;10637;47.970;7.830;2023-02-01T20:54:04;16.83;;;4.17;;
20956;SDS011;10637;47.970;7.830;2023-02-01T20:59:07;16.50;;;4.20;;
20956;SDS011;10637;47.970;7.830;2023-02-01T21:04:10;18.53;;;4.70;;
20956;SDS011;10637;47.970;7.830;2023-02-01T21:09:12;27.10;;;5.17;;
20956;SDS011;10637;47.970;7.830;2023-02-01T21:14:14;20.33;;;4.30;;
20956;SDS011;10637;47.970;7.830;2023-02-01T21:19:16;15.60;;;4.20;;
20956;SDS011;10637;47.970;7.830;2023-02-01T21:24:18;25.63;;;5.17;;
20956;SDS011;10637;47.970;7.830;2023-02-01T21:29:20;18.90;;;4.40;;
20956;SDS011;10637;47.970;7.830;2023-02-01T21:34:22;25.07;;;4.73;;
20956;SDS011;10637;47.970;7.830;2023-02-01T21:39:24;23.30;;;5.13;;
20956;SDS011;10637;47.970;7.830;2023-02-01T21:44:28;25.53;;;5.03;;
20956;SDS011;10637;47.970;7.830;2023-02-01T21:49:30;19.80;;;4.67;;
20956;SDS011;10637;47.970;7.830;2023-02-01T21:54:33;19.73;;;4.70;;
20956;SDS011;10637;47.970;7.830;2023-02-01T21:59:34;20.03;;;4.67;;
20956;SDS011;10637;47.970;7.830;2023-02-01T22:04:37;16.10;;;4.43;;
20956;SDS011;10637;47.970;7.830;2023-02-01T22:09:38;28.37;;;5.40;;
20956;SDS011;10637;47.970;7.830;2023-02-01T22:14:41;22.53;;;4.47;;
20956;SDS011;10637;47.970;7.830;2023-02-01T22:19:45;16.87;;;4.43;;
20956;SDS011;10637;47.970;7.830;2023-02-01T22:24:46;21.17;;;4.70;;
20956;SDS011;10637;47.970;7.830;2023-02-01T22:29:48;25.03;;;4.70;;
20956;SDS011;10637;47.970;7.830;2023-02-01T22:34:50;20.67;;;4.60;;
20956;SDS011;10637;47.970;7.830;2023-02-01T22:39:53;22.17;;;4.50;;
20956;SDS011;10637;47.970;7.830;2023-02-01T22:44:57;28.70;;;5.10;;
20956;SDS011;10637;47.970;7.830;2023-02-01T22:50:01;21.67;;;4.87;;
20956;SDS011;10637;47.970;7.830;2023-02-01T22:55:03;22.83;;;4.27;;
20956;SDS011;10637;47.970;7.830;2023-02-01T23:00:06;23.73;;;4.60;;
20956;SDS011;10637;47.970;7.830;2023-02-01T23:05:09;20.63;;;4.80;;
20956;SDS011;10637;47.970;7.830;2023-02-01T23:10:11;22.07;;;4.77;;
20956;SDS011;10637;47.970;7.830;2023-02-01T23:15:20;21.33;;;4.50;;
20956;SDS011;10637;47.970;7.830;2023-02-01T23:20:23;19.70;;;4.77;;
20956;SDS011;10637;47.970;7.830;2023-02-01T23:25:28;22.20;;;4.73;;
20956;SDS011;10637;47.970;7.830;2023-02-01T23:30:31;18.77;;;4.37;;
20956;SDS011;10637;47.970;7.830;2023-02-01T23:35:33;23.60;;;4.80;;
20956;SDS011;10637;47.970;7.830;2023-02-01T23:40:36;21.30;;;4.47;;
20956;SDS011;10637;47.970;7.830;2023-02-01T23:45:38;24.23;;;4.13;;
20956;SDS011;10637;47.970;7.830;2023-02-01T23:50:40;21.93;;;4.60;;
20956;SDS011;10637;47.970;7.830;2023-02-01T23:55:42;21.97;;;5.00;;
